Time;durP1;ratioP1;P1;durP2;ratioP2;P2;SDS_P1;SDS_P2;PMS_P1;PMS_P2;Temp;Humidity;BMP_temperature;BMP_pressure;BME280_temperature;BME280_humidity;BME280_pressure;Samples;Min_cycle;Max_cycle;Signal;HPM_P1;HPM_P2
2022/11/13 00:02:40;;;;;;;105.25;49.65;;;2.00;99.90;;;;;;6258493;22;20054;-89
2022/11/13 00:05:27;;;;;;;90.60;44.22;;;2.10;99.90;;;;;;6279337;22;20422;-87
2022/11/13 00:08:18;;;;;;;85.13;42.75;;;2.10;99.90;;;;;;6258639;22;20027;-88
2022/11/13 00:11:17;;;;;;;101.95;46.45;;;2.10;99.90;;;;;;6277103;22;20027;-88
2022/11/13 00:14:05;;;;;;;103.05;43.90;;;2.00;99.90;;;;;;6259724;22;20409;-89
2022/11/13 00:16:52;;;;;;;101.38;43.35;;;2.00;99.90;;;;;;6281199;22;20028;-88
2022/11/13 00:19:40;;;;;;;144.15;44.63;;;2.00;99.90;;;;;;6286974;22;20038;-88
2022/11/13 00:22:27;;;;;;;117.95;45.00;;;2.00;99.90;;;;;;6279644;22;20042;-87
2022/11/13 00:25:14;;;;;;;156.07;47.10;;;2.00;99.90;;;;;;6258935;22;20019;-88
2022/11/13 00:28:02;;;;;;;127.60;42.10;;;2.10;99.90;;;;;;6276122;22;20034;-88
2022/11/13 00:30:49;;;;;;;107.95;44.00;;;2.20;99.90;;;;;;6277392;22;20026;-88
2022/11/13 00:33:36;;;;;;;147.95;45.22;;;2.10;99.90;;;;;;6278587;22;20106;-87
2022/11/13 00:36:46;;;;;;;106.88;39.92;;;2.00;99.90;;;;;;6261775;22;20027;-88
2022/11/13 00:39:35;;;;;;;121.78;42.25;;;1.90;99.90;;;;;;6256740;22;20027;-88
2022/11/13 00:42:22;;;;;;;164.07;44.33;;;1.80;99.90;;;;;;6256348;22;20103;-88
2022/11/13 00:45:13;;;;;;;95.47;38.45;;;1.80;99.90;;;;;;6256356;22;20099;-87
2022/11/13 00:48:00;;;;;;;122.68;41.20;;;1.80;99.90;;;;;;6275818;22;20019;-89
2022/11/13 00:50:50;;;;;;;69.13;32.70;;;1.80;99.90;;;;;;6279491;22;20049;-88
2022/11/13 00:53:37;;;;;;;61.58;31.42;;;1.70;99.90;;;;;;6275682;22;20030;-88
2022/11/13 00:56:27;;;;;;;66.95;32.40;;;1.60;99.90;;;;;;6276831;22;20023;-88
2022/11/13 00:59:17;;;;;;;102.05;36.45;;;1.50;99.90;;;;;;6256562;22;20051;-88
2022/11/13 01:02:04;;;;;;;117.95;37.38;;;1.60;99.90;;;;;;6277670;22;20099;-88
2022/11/13 01:04:51;;;;;;;92.45;37.17;;;1.60;99.90;;;;;;6257353;22;20020;-88
2022/11/13 01:07:38;;;;;;;76.20;34.20;;;1.60;99.90;;;;;;6255486;22;20109;-88
2022/11/13 01:10:26;;;;;;;60.55;32.78;;;1.50;99.90;;;;;;6256280;22;20091;-88
2022/11/13 01:13:13;;;;;;;59.90;31.92;;;1.40;99.90;;;;;;6277922;22;20334;-87
2022/11/13 01:16:06;;;;;;;57.30;30.02;;;1.20;99.90;;;;;;6256015;22;20032;-87
2022/11/13 01:18:54;;;;;;;61.67;31.20;;;1.10;99.90;;;;;;6277327;22;20027;-88
2022/11/13 01:21:44;;;;;;;54.95;30.10;;;1.00;99.90;;;;;;6278342;22;20058;-88
2022/11/13 01:24:31;;;;;;;53.13;29.48;;;1.10;99.90;;;;;;6255671;22;20051;-88
2022/11/13 01:27:19;;;;;;;55.88;30.92;;;1.10;99.90;;;;;;6275124;22;20027;-88
2022/11/13 01:30:06;;;;;;;51.47;28.15;;;1.00;99.90;;;;;;6255962;22;20051;-88
2022/11/13 01:32:54;;;;;;;53.97;29.67;;;1.10;99.90;;;;;;6257072;22;20024;-89
2022/11/13 01:35:41;;;;;;;50.72;27.75;;;1.00;99.90;;;;;;6277401;22;20065;-88
2022/11/13 01:38:28;;;;;;;45.10;26.15;;;1.00;99.90;;;;;;6276675;22;20034;-88
2022/11/13 01:41:25;;;;;;;52.38;28.58;;;0.90;99.90;;;;;;6279046;22;20053;-88
2022/11/13 01:44:14;;;;;;;53.85;28.73;;;0.80;99.90;;;;;;6276804;22;20038;-87
2022/11/13 01:47:03;;;;;;;61.30;30.50;;;0.80;99.90;;;;;;6278191;22;20382;-88
2022/11/13 01:49:56;;;;;;;63.72;31.73;;;0.70;99.90;;;;;;6274116;22;20047;-88
2022/11/13 01:52:43;;;;;;;61.63;32.20;;;0.70;99.90;;;;;;6277277;22;20024;-87
2022/11/13 01:55:30;;;;;;;58.30;33.00;;;0.70;99.90;;;;;;6274436;22;20025;-88
2022/11/13 01:58:18;;;;;;;62.75;32.17;;;0.70;99.90;;;;;;6279065;22;20538;-88
2022/11/13 02:01:05;;;;;;;67.05;33.03;;;0.70;99.90;;;;;;6255567;22;20390;-87
2022/11/13 02:03:52;;;;;;;68.15;33.40;;;0.70;99.90;;;;;;6255726;22;20368;-89
2022/11/13 02:07:12;;;;;;;59.08;32.22;;;0.60;99.90;;;;;;6277596;22;20027;-88
2022/11/13 02:10:00;;;;;;;53.33;29.15;;;0.60;99.90;;;;;;6269757;22;20109;-88
2022/11/13 02:12:52;;;;;;;53.17;29.13;;;0.40;99.90;;;;;;6253967;22;20403;-87
2022/11/13 02:15:41;;;;;;;52.00;28.55;;;0.30;99.90;;;;;;6275291;22;20036;-88
2022/11/13 02:18:32;;;;;;;50.47;27.50;;;0.20;99.90;;;;;;6277726;22;20032;-87
2022/11/13 02:21:46;;;;;;;50.67;27.05;;;0.20;99.90;;;;;;6275119;22;20098;-87
2022/11/13 02:24:39;;;;;;;44.78;26.25;;;0.10;99.90;;;;;;6273145;22;20027;-88
2022/11/13 02:27:42;;;;;;;49.63;27.00;;;0.10;99.90;;;;;;6277318;22;20019;-87
2022/11/13 02:30:35;;;;;;;54.13;29.20;;;0.20;99.90;;;;;;6276250;22;20038;-88
2022/11/13 02:33:27;;;;;;;;;;;0.40;99.90;;;;;;6275909;22;20071;-87
2022/11/13 02:36:15;;;;;;;51.03;28.90;;;0.40;99.90;;;;;;6276774;22;20242;-86
2022/11/13 02:39:09;;;;;;;56.40;30.58;;;0.40;99.90;;;;;;6278700;22;20082;-87
2022/11/13 02:41:57;;;;;;;54.22;29.40;;;0.50;99.90;;;;;;6275489;22;20112;-87
2022/11/13 02:44:46;;;;;;;50.15;28.60;;;0.50;99.90;;;;;;6278377;22;20094;-87
2022/11/13 02:47:36;;;;;;;49.90;28.42;;;0.50;99.90;;;;;;6278313;22;20115;-87
2022/11/13 02:50:23;;;;;;;55.53;28.83;;;0.40;99.90;;;;;;6255452;22;20024;-86
2022/11/13 02:53:12;;;;;;;46.60;27.25;;;0.30;99.90;;;;;;6277733;22;20105;-86
2022/11/13 02:56:02;;;;;;;45.60;26.30;;;0.20;99.90;;;;;;6278629;22;20098;-86
2022/11/13 02:58:54;;;;;;;43.40;26.02;;;0.10;99.90;;;;;;6276146;22;20051;-87
2022/11/13 03:01:41;;;;;;;46.57;26.10;;;0.10;99.90;;;;;;6275472;22;20482;-87
2022/11/13 03:04:28;;;;;;;44.20;25.10;;;0.00;99.90;;;;;;6229538;22;1132150;-87
2022/11/13 03:07:35;;;;;;;45.17;25.05;;;0.00;99.90;;;;;;6277925;22;20024;-87
2022/11/13 03:10:22;;;;;;;48.08;26.00;;;0.10;99.90;;;;;;6257334;22;20023;-87
2022/11/13 03:13:10;;;;;;;53.20;27.27;;;0.10;99.90;;;;;;6255624;22;20023;-85
2022/11/13 03:16:05;;;;;;;48.78;26.98;;;0.30;99.90;;;;;;6275097;22;20103;-87
2022/11/13 03:18:54;;;;;;;56.35;28.80;;;0.30;99.90;;;;;;6257639;22;20112;-87
2022/11/13 03:21:46;;;;;;;50.70;26.80;;;0.30;99.90;;;;;;6280001;22;20019;-86
2022/11/13 03:24:35;;;;;;;51.80;26.30;;;0.30;99.90;;;;;;6277804;22;20028;-85
2022/11/13 03:27:22;;;;;;;42.53;25.65;;;0.30;99.90;;;;;;6280013;22;20085;-85
2022/11/13 03:30:10;;;;;;;50.33;27.48;;;0.30;99.90;;;;;;6257945;22;20103;-87
2022/11/13 03:32:59;;;;;;;44.58;26.67;;;0.30;99.90;;;;;;6256522;22;20363;-87
2022/11/13 03:35:47;;;;;;;46.60;26.52;;;0.30;99.90;;;;;;6258055;22;20487;-87
2022/11/13 03:38:34;;;;;;;44.08;25.35;;;0.40;99.90;;;;;;6256901;22;20322;-87
2022/11/13 03:41:22;;;;;;;48.20;26.70;;;0.40;99.90;;;;;;6257090;22;20024;-87
2022/11/13 03:44:09;;;;;;;46.05;26.02;;;0.30;99.90;;;;;;6276425;22;20162;-88
2022/11/13 03:46:56;;;;;;;44.13;25.92;;;0.30;99.90;;;;;;6256400;22;20033;-86
2022/11/13 03:49:46;;;;;;;48.83;26.02;;;0.30;99.90;;;;;;6277225;22;20028;-87
2022/11/13 03:52:35;;;;;;;44.58;24.65;;;0.30;99.90;;;;;;6278322;22;20020;-86
2022/11/13 03:55:22;;;;;;;40.67;24.38;;;0.30;99.90;;;;;;6278697;22;20085;-85
2022/11/13 03:58:09;;;;;;;46.63;26.42;;;0.30;99.90;;;;;;6255617;22;20458;-86
2022/11/13 04:00:56;;;;;;;43.85;26.50;;;0.40;99.90;;;;;;6257351;22;20027;-87
2022/11/13 04:03:43;;;;;;;46.08;26.42;;;0.30;99.90;;;;;;6257167;22;20415;-87
2022/11/13 04:06:31;;;;;;;45.85;25.90;;;0.20;99.90;;;;;;6277320;22;20019;-87
2022/11/13 04:09:18;;;;;;;49.20;25.73;;;0.10;99.90;;;;;;6257671;22;20031;-87
2022/11/13 04:12:07;;;;;;;38.20;23.45;;;0.10;99.90;;;;;;6277594;22;20023;-87
2022/11/13 04:14:54;;;;;;;44.55;25.38;;;0.00;99.90;;;;;;6257081;22;20105;-88
2022/11/13 04:17:42;;;;;;;41.78;24.55;;;-0.10;99.90;;;;;;6277690;22;20031;-88
2022/11/13 04:20:29;;;;;;;45.22;24.23;;;-0.20;99.90;;;;;;6254092;22;20102;-87
2022/11/13 04:23:16;;;;;;;37.92;22.95;;;-0.30;99.90;;;;;;6258195;22;20031;-85
2022/11/13 04:26:08;;;;;;;38.90;23.73;;;-0.30;99.90;;;;;;6257231;22;20024;-87
2022/11/13 04:28:55;;;;;;;45.70;24.83;;;-0.20;99.90;;;;;;6278575;22;20305;-86
2022/11/13 04:31:42;;;;;;;48.80;25.75;;;-0.10;99.90;;;;;;6277377;22;20394;-86
2022/11/13 04:34:31;;;;;;;44.42;24.60;;;-0.10;99.90;;;;;;6277284;22;20099;-87
2022/11/13 04:37:20;;;;;;;41.17;23.92;;;-0.10;99.90;;;;;;6277454;22;20109;-88
2022/11/13 04:40:11;;;;;;;44.72;24.10;;;-0.10;99.90;;;;;;6277197;22;20030;-88
2022/11/13 04:42:58;;;;;;;45.13;25.05;;;-0.10;99.90;;;;;;6279723;22;20023;-87
2022/11/13 04:45:47;;;;;;;46.67;24.73;;;-0.10;99.90;;;;;;6263391;22;20469;-87
2022/11/13 04:48:34;;;;;;;39.05;22.08;;;-0.20;99.90;;;;;;6282737;22;20039;-85
2022/11/13 04:51:22;;;;;;;49.40;24.92;;;-0.20;99.90;;;;;;6285128;22;20075;-86
2022/11/13 04:54:11;;;;;;;42.75;23.58;;;-0.20;99.90;;;;;;6264008;22;20050;-88
2022/11/13 04:56:58;;;;;;;38.17;21.63;;;-0.30;99.90;;;;;;6263120;22;20038;-85
2022/11/13 05:00:22;;;;;;;44.05;23.48;;;-0.40;99.90;;;;;;6288943;22;20051;-85
2022/11/13 05:03:12;;;;;;;42.90;22.85;;;-0.30;99.90;;;;;;6260553;22;20075;-87
2022/11/13 05:06:10;;;;;;;40.83;22.80;;;-0.20;99.90;;;;;;6282359;22;20059;-86
2022/11/13 05:08:57;;;;;;;43.58;21.75;;;-0.20;99.90;;;;;;6277762;22;20077;-86
2022/11/13 05:11:44;;;;;;;43.50;23.45;;;-0.30;99.90;;;;;;6281625;22;20081;-86
2022/11/13 05:14:35;;;;;;;41.22;22.85;;;-0.40;99.90;;;;;;6282998;22;20047;-86
2022/11/13 05:17:24;;;;;;;42.40;24.75;;;-0.40;99.90;;;;;;6298376;22;20015;-85
2022/11/13 05:20:14;;;;;;;43.55;23.98;;;-0.30;99.90;;;;;;6282067;22;20039;-86
2022/11/13 05:23:04;;;;;;;43.17;24.35;;;-0.20;99.90;;;;;;6270148;22;20099;-86
2022/11/13 05:25:54;;;;;;;49.30;25.33;;;-0.10;99.90;;;;;;6262882;22;20030;-87
2022/11/13 05:28:41;;;;;;;42.33;23.67;;;-0.10;99.90;;;;;;6278383;22;20024;-86
2022/11/13 05:31:28;;;;;;;40.20;24.42;;;-0.10;99.90;;;;;;6278769;22;20019;-86
2022/11/13 05:34:20;;;;;;;43.92;24.17;;;-0.10;99.90;;;;;;6279210;22;20085;-86
2022/11/13 05:37:09;;;;;;;39.38;23.63;;;-0.20;99.90;;;;;;6258680;22;20103;-86
2022/11/13 05:39:57;;;;;;;45.25;23.88;;;-0.20;99.90;;;;;;6257788;22;20039;-85
2022/11/13 05:42:44;;;;;;;46.60;25.83;;;-0.30;99.90;;;;;;6263283;22;20062;-85
2022/11/13 05:45:33;;;;;;;47.80;27.67;;;-0.30;99.90;;;;;;6282524;22;20426;-84
2022/11/13 05:48:20;;;;;;;52.83;28.70;;;-0.30;99.90;;;;;;6279189;22;20024;-85
2022/11/13 05:51:17;;;;;;;46.80;25.85;;;-0.20;99.90;;;;;;6279943;22;20020;-85
2022/11/13 05:54:06;;;;;;;45.15;25.42;;;-0.20;99.90;;;;;;6279893;22;20051;-84
2022/11/13 05:56:54;;;;;;;44.22;23.95;;;-0.20;99.90;;;;;;6276418;22;20104;-85
2022/11/13 05:59:43;;;;;;;43.80;23.42;;;-0.20;99.90;;;;;;6254839;22;20055;-85
2022/11/13 06:02:30;;;;;;;47.83;24.92;;;-0.20;99.90;;;;;;6256029;22;20028;-85
2022/11/13 06:05:19;;;;;;;43.50;23.55;;;-0.20;99.90;;;;;;6276183;22;20024;-87
2022/11/13 06:08:08;;;;;;;44.25;23.15;;;-0.30;99.90;;;;;;6259630;22;20354;-86
2022/11/13 06:11:07;;;;;;;47.83;23.83;;;-0.40;99.90;;;;;;6268410;22;20095;-86
2022/11/13 06:13:55;;;;;;;48.72;25.38;;;-0.40;99.90;;;;;;6257275;22;20060;-86
2022/11/13 06:16:45;;;;;;;51.30;26.15;;;-0.40;99.90;;;;;;6281708;22;20030;-88
2022/11/13 06:19:32;;;;;;;57.22;28.83;;;-0.40;99.90;;;;;;6280147;22;20034;-88
2022/11/13 06:22:20;;;;;;;52.00;26.58;;;-0.40;99.90;;;;;;6257549;22;20036;-87
2022/11/13 06:25:09;;;;;;;56.80;27.92;;;-0.50;99.90;;;;;;6258141;22;20117;-87
2022/11/13 06:27:56;;;;;;;53.95;27.73;;;-0.50;99.90;;;;;;6284899;22;20106;-86
2022/11/13 06:30:44;;;;;;;45.97;25.38;;;-0.50;99.90;;;;;;6266981;22;20075;-85
2022/11/13 06:33:31;;;;;;;54.17;26.13;;;-0.50;99.90;;;;;;6264483;22;20048;-86
2022/11/13 06:36:26;;;;;;;55.42;26.98;;;-0.50;99.90;;;;;;6262301;22;20027;-86
2022/11/13 06:39:16;;;;;;;50.40;24.95;;;-0.60;99.90;;;;;;6277462;22;20083;-87
2022/11/13 06:42:03;;;;;;;55.90;27.27;;;-0.60;99.90;;;;;;6258595;22;20420;-85
2022/11/13 06:44:52;;;;;;;53.25;28.13;;;-0.60;99.90;;;;;;6279505;22;20024;-87
2022/11/13 06:47:39;;;;;;;60.00;31.80;;;-0.50;99.90;;;;;;6257640;22;20425;-86
2022/11/13 06:50:26;;;;;;;54.90;28.58;;;-0.30;99.90;;;;;;6276351;22;20020;-86
2022/11/13 06:53:16;;;;;;;52.47;27.75;;;-0.30;99.90;;;;;;6259557;22;20103;-86
2022/11/13 06:56:07;;;;;;;57.95;29.50;;;-0.30;99.90;;;;;;6258472;22;20121;-86
2022/11/13 06:58:55;;;;;;;60.33;30.35;;;-0.30;99.90;;;;;;6256198;22;20322;-86
2022/11/13 07:01:42;;;;;;;52.08;29.42;;;-0.20;99.90;;;;;;6258447;22;20090;-86
2022/11/13 07:04:29;;;;;;;56.45;32.03;;;0.00;99.90;;;;;;6276191;22;20111;-84
2022/11/13 07:07:16;;;;;;;58.53;32.80;;;0.10;99.90;;;;;;6289586;22;20027;-86
2022/11/13 07:10:04;;;;;;;61.53;33.72;;;0.20;99.90;;;;;;6279720;22;20027;-86
2022/11/13 07:12:51;;;;;;;60.40;33.08;;;0.40;99.90;;;;;;6278734;22;20031;-87
2022/11/13 07:15:43;;;;;;;59.60;33.08;;;0.50;99.90;;;;;;6280039;22;20265;-85
2022/11/13 07:18:33;;;;;;;67.45;35.70;;;0.60;99.90;;;;;;6281168;22;20354;-86
2022/11/13 07:21:21;;;;;;;82.85;37.30;;;0.70;99.90;;;;;;6278292;22;20023;-87
2022/11/13 07:24:10;;;;;;;93.47;39.42;;;0.80;99.90;;;;;;6278447;22;20031;-87
2022/11/13 07:27:03;;;;;;;91.80;41.95;;;0.90;99.90;;;;;;6259808;22;20024;-86
2022/11/13 07:29:52;;;;;;;84.85;40.88;;;1.00;99.90;;;;;;6281010;22;20059;-87
2022/11/13 07:32:39;;;;;;;121.90;43.95;;;1.00;99.90;;;;;;6279457;22;20474;-88
2022/11/13 07:35:38;;;;;;;66.55;35.08;;;1.40;99.90;;;;;;6258946;22;20081;-83
2022/11/13 07:38:25;;;;;;;75.25;34.95;;;1.80;99.90;;;;;;6256889;22;20024;-83
2022/11/13 07:41:13;;;;;;;67.85;34.35;;;2.10;99.90;;;;;;6278405;22;20411;-82
2022/11/13 07:44:03;;;;;;;72.80;34.35;;;1.90;99.90;;;;;;6275478;22;20027;-81
2022/11/13 07:46:57;;;;;;;69.13;32.95;;;1.60;99.90;;;;;;6258385;22;20031;-82
2022/11/13 07:49:44;;;;;;;60.92;32.78;;;1.50;99.90;;;;;;6276814;22;20132;-88
2022/11/13 07:52:33;;;;;;;67.93;35.92;;;1.50;99.90;;;;;;6257122;22;20411;-87
2022/11/13 07:55:21;;;;;;;72.90;37.78;;;1.60;99.90;;;;;;6278738;22;20107;-89
2022/11/13 08:17:05;;;;;;;74.28;41.00;;;2.40;99.90;;;;;;6278595;22;20296;-89
2022/11/13 08:59:46;;;;;;;31.60;21.10;;;5.80;99.90;;;;;;6290812;22;20214;-90
2022/11/13 09:02:46;;;;;;;28.08;18.20;;;6.40;99.90;;;;;;6274508;22;20102;-88
2022/11/13 09:22:23;;;;;;;;;;;;;;;;;;;;;
2022/11/13 09:34:24;;;;;;;7.05;5.95;;;11.50;99.90;;;;;;6284448;22;20007;-91
2022/11/13 09:37:15;;;;;;;6.63;5.60;;;12.50;99.90;;;;;;6281398;22;20051;-91
2022/11/13 10:02:30;;;;;;;6.95;5.20;;;15.10;99.90;;;;;;6281771;22;19999;-92
2022/11/13 10:57:03;;;;;;;5.50;4.63;;;18.70;32.50;;;;;;6292217;22;20016;-91
2022/11/13 12:21:02;;;;;;;6.63;4.90;;;20.20;1.00;;;;;;6284581;22;20402;-91
2022/11/13 12:24:37;;;;;;;6.93;5.00;;;19.60;1.00;;;;;;6243174;22;20387;-90
2022/11/13 12:27:41;;;;;;;5.93;4.82;;;20.10;1.00;;;;;;6278357;22;20024;-86
2022/11/13 12:30:59;;;;;;;5.72;5.13;;;19.60;1.00;;;;;;6278472;22;20372;-87
2022/11/13 12:34:25;;;;;;;6.18;4.75;;;19.80;1.00;;;;;;6256239;22;20051;-85
2022/11/13 12:37:21;;;;;;;7.55;5.03;;;19.20;1.00;;;;;;6274358;22;20024;-86
2022/11/13 12:40:28;;;;;;;5.82;4.63;;;18.90;1.00;;;;;;6278008;22;20371;-88
2022/11/13 12:43:38;;;;;;;5.75;4.80;;;19.60;1.00;;;;;;6242843;22;20023;-86
2022/11/13 12:46:38;;;;;;;5.72;4.75;;;20.40;1.00;;;;;;6277167;22;20092;-88
2022/11/13 12:49:32;;;;;;;6.50;5.13;;;20.50;1.00;;;;;;6276596;22;20019;-89
2022/11/13 12:52:23;;;;;;;6.95;5.95;;;21.10;1.00;;;;;;6277717;22;20168;-89
2022/11/13 12:55:25;;;;;;;5.47;4.45;;;21.20;1.00;;;;;;6277100;22;20061;-91
2022/11/13 12:58:29;;;;;;;7.78;5.03;;;21.00;1.00;;;;;;6256726;22;20059;-87
2022/11/13 13:01:22;;;;;;;4.53;3.97;;;21.10;1.00;;;;;;6278011;22;20023;-85
2022/11/13 13:04:57;;;;;;;5.85;4.30;;;21.70;1.00;;;;;;6276766;22;20450;-84
2022/11/13 13:08:02;;;;;;;5.90;4.30;;;21.60;1.00;;;;;;6227147;22;20080;-88
2022/11/13 13:11:10;;;;;;;5.32;4.35;;;21.00;1.00;;;;;;6274512;22;20126;-85
2022/11/13 13:14:24;;;;;;;6.32;4.07;;;21.80;1.00;;;;;;6276941;22;20108;-89
2022/11/13 13:17:18;;;;;;;6.50;4.20;;;20.60;1.00;;;;;;6254809;22;20397;-89
2022/11/13 13:20:26;;;;;;;4.80;4.30;;;20.10;1.00;;;;;;6275977;22;20074;-86
2022/11/13 13:23:28;;;;;;;6.22;4.68;;;19.00;1.00;;;;;;6272604;22;20023;-86
2022/11/13 13:26:29;;;;;;;5.88;4.60;;;19.70;1.00;;;;;;6277747;22;20102;-87
2022/11/13 13:29:28;;;;;;;7.28;4.82;;;19.80;1.00;;;;;;6256020;22;20047;-88
2022/11/13 13:32:19;;;;;;;6.82;4.35;;;19.00;1.00;;;;;;6274999;22;20023;-87
2022/11/13 13:35:10;;;;;;;6.85;4.93;;;18.40;1.00;;;;;;6255147;22;20066;-88
2022/11/13 13:38:10;;;;;;;5.93;4.72;;;18.00;1.00;;;;;;6254714;22;20073;-88
2022/11/13 13:41:16;;;;;;;8.60;5.85;;;17.30;1.00;;;;;;6276661;22;20367;-84
2022/11/13 13:44:41;;;;;;;7.28;5.43;;;17.20;1.00;;;;;;6276953;22;20027;-83
2022/11/13 13:47:39;;;;;;;6.75;5.35;;;17.10;1.00;;;;;;6279012;22;20031;-85
2022/11/13 13:50:33;;;;;;;7.63;5.55;;;17.20;1.00;;;;;;6277660;22;20248;-85
2022/11/13 13:53:28;;;;;;;8.43;5.72;;;16.80;1.00;;;;;;6275635;22;20038;-86
2022/11/13 13:56:17;;;;;;;9.50;5.63;;;16.30;1.00;;;;;;6256937;22;20327;-86
2022/11/13 13:59:12;;;;;;;7.00;4.85;;;16.50;1.00;;;;;;6279090;22;20484;-85
2022/11/13 14:02:02;;;;;;;6.45;5.15;;;17.20;1.00;;;;;;6276421;22;20108;-85
2022/11/13 14:05:44;;;;;;;6.82;5.05;;;17.70;1.00;;;;;;6258349;22;20027;-87
2022/11/13 14:08:32;;;;;;;6.95;5.25;;;17.40;1.00;;;;;;6274477;22;20485;-87
2022/11/13 14:11:21;;;;;;;7.32;5.03;;;17.00;1.00;;;;;;6256118;22;20121;-87
2022/11/13 14:14:22;;;;;;;7.50;4.90;;;16.60;1.00;;;;;;6277100;22;20035;-86
2022/11/13 14:17:10;;;;;;;6.28;5.30;;;16.50;1.00;;;;;;6250434;22;20110;-87
2022/11/13 14:19:59;;;;;;;6.50;5.28;;;16.80;1.00;;;;;;6276001;22;20047;-86
2022/11/13 14:22:50;;;;;;;7.60;5.63;;;17.00;1.00;;;;;;6253798;22;20023;-87
2022/11/13 14:25:43;;;;;;;6.65;5.15;;;17.10;1.00;;;;;;6238429;22;20106;-88
2022/11/13 14:28:33;;;;;;;6.88;5.28;;;16.80;1.00;;;;;;6277256;22;20051;-86
2022/11/13 14:31:28;;;;;;;6.50;5.28;;;16.50;1.00;;;;;;6255702;22;20047;-88
2022/11/13 14:34:19;;;;;;;10.13;5.63;;;16.30;1.00;;;;;;6255423;22;20022;-87
2022/11/13 14:37:47;;;;;;;7.05;5.07;;;16.00;1.00;;;;;;6282437;22;20027;-89
2022/11/13 14:40:38;;;;;;;8.13;6.90;;;15.80;1.00;;;;;;6156275;23;20112;-87
2022/11/13 14:43:30;;;;;;;8.32;6.07;;;16.20;1.00;;;;;;6259744;22;20085;-87
2022/11/13 14:46:25;;;;;;;;;;;16.00;1.00;;;;;;6277986;22;20023;-85
2022/11/13 14:49:36;;;;;;;6.88;4.65;;;16.10;1.00;;;;;;6279681;22;19926;-86
2022/11/13 14:52:29;;;;;;;6.10;4.63;;;15.50;1.00;;;;;;6259170;22;20024;-87
2022/11/13 14:55:29;;;;;;;7.63;5.55;;;15.40;1.00;;;;;;6256963;22;20094;-87
2022/11/13 14:58:27;;;;;;;7.18;5.05;;;14.80;1.00;;;;;;6257459;22;20473;-86
2022/11/13 15:01:20;;;;;;;7.78;5.85;;;14.30;1.00;;;;;;6278913;22;20039;-86
2022/11/13 15:04:07;;;;;;;;;;;13.80;1.00;;;;;;6291880;22;20054;-87
2022/11/13 15:07:02;;;;;;;8.85;6.47;;;13.20;1.00;;;;;;6287315;22;19925;-87
2022/11/13 15:09:52;;;;;;;10.07;5.90;;;12.80;4.60;;;;;;6288626;22;20358;-87
2022/11/13 15:12:44;;;;;;;8.83;5.87;;;12.60;13.00;;;;;;6288666;22;20024;-86
2022/11/13 15:16:04;;;;;;;8.82;6.65;;;12.40;21.80;;;;;;6288042;22;20061;-88
2022/11/13 15:22:45;;;;;;;11.73;7.45;;;11.40;60.10;;;;;;6277056;22;20094;-87
2022/11/13 15:25:37;;;;;;;8.50;6.80;;;11.10;96.00;;;;;;6263505;22;20320;-87
2022/11/13 15:28:38;;;;;;;10.88;8.02;;;10.80;99.90;;;;;;6267385;22;20093;-87
2022/11/13 15:31:31;;;;;;;9.13;7.53;;;10.40;99.90;;;;;;6266702;22;20020;-86
2022/11/13 15:34:27;;;;;;;12.45;8.38;;;10.10;99.90;;;;;;6270753;22;20422;-88
2022/11/13 15:37:36;;;;;;;10.30;7.43;;;9.80;99.90;;;;;;6293383;22;20039;-88
2022/11/13 15:40:30;;;;;;;9.75;7.63;;;9.40;99.90;;;;;;6259026;22;20029;-86
2022/11/13 15:43:30;;;;;;;11.10;8.30;;;9.10;99.90;;;;;;6302336;22;20024;-85
2022/11/13 15:46:20;;;;;;;13.65;8.68;;;8.80;99.90;;;;;;6280904;22;20015;-86
2022/11/13 15:49:08;;;;;;;13.50;9.18;;;8.50;99.90;;;;;;6266714;22;20367;-87
2022/11/13 15:51:56;;;;;;;12.70;8.85;;;8.20;99.90;;;;;;6266049;22;20062;-88
2022/11/13 15:54:44;;;;;;;15.15;9.75;;;8.00;99.90;;;;;;6289077;22;20024;-87
2022/11/13 15:57:31;;;;;;;17.08;10.65;;;7.70;99.90;;;;;;6287535;22;20027;-88
2022/11/13 16:00:27;;;;;;;17.60;11.32;;;7.60;1.00;;;;;;6280433;22;20323;-88
2022/11/13 16:03:19;;;;;;;16.08;10.65;;;7.50;1.00;;;;;;6256385;22;20092;-87
2022/11/13 16:06:20;;;;;;;15.30;11.00;;;7.40;1.00;;;;;;6256310;22;20023;-88
2022/11/13 16:09:11;;;;;;;14.50;10.07;;;7.30;1.00;;;;;;6255267;22;20082;-89
2022/11/13 16:12:01;;;;;;;16.92;10.95;;;7.10;1.00;;;;;;6277506;22;20020;-88
2022/11/13 16:14:48;;;;;;;14.05;10.93;;;6.90;44.00;;;;;;6254763;22;20027;-88
2022/11/13 16:17:40;;;;;;;16.83;11.70;;;6.70;99.90;;;;;;6255621;22;20417;-87
2022/11/13 16:20:31;;;;;;;22.57;14.00;;;6.60;99.90;;;;;;6277136;22;20027;-86
2022/11/13 16:23:19;;;;;;;32.40;18.83;;;6.50;99.90;;;;;;6275035;22;20031;-89
2022/11/13 16:26:23;;;;;;;31.27;18.65;;;6.50;99.90;;;;;;6256682;22;20429;-88
2022/11/13 16:29:18;;;;;;;31.63;19.02;;;6.40;1.00;;;;;;6264971;22;20073;-88
2022/11/13 16:32:14;;;;;;;28.83;18.98;;;6.20;1.00;;;;;;6279956;22;20019;-88
2022/11/13 16:35:01;;;;;;;25.27;16.77;;;6.10;6.20;;;;;;6276710;22;20595;-88
2022/11/13 16:37:52;;;;;;;25.90;16.88;;;5.90;99.90;;;;;;6279722;22;20099;-89
2022/11/13 16:40:44;;;;;;;24.33;16.02;;;5.80;99.90;;;;;;6254583;22;20059;-89
2022/11/13 16:43:31;;;;;;;25.05;17.20;;;5.80;13.90;;;;;;6276876;22;20443;-88
2022/11/13 16:46:27;;;;;;;25.83;17.55;;;5.80;99.90;;;;;;6257299;22;20419;-86
2022/11/13 16:49:18;;;;;;;28.98;19.10;;;5.80;1.00;;;;;;6278561;22;20030;-88
2022/11/13 16:52:05;;;;;;;38.22;23.85;;;5.70;99.90;;;;;;6281995;22;20314;-86
2022/11/13 16:54:56;;;;;;;35.28;22.52;;;5.60;99.90;;;;;;6276224;22;20066;-86
2022/11/13 16:57:53;;;;;;;41.80;22.85;;;5.50;99.90;;;;;;6279389;22;20098;-85
2022/11/13 17:00:41;;;;;;;34.15;22.35;;;5.30;1.00;;;;;;6254109;22;20038;-86
2022/11/13 17:03:28;;;;;;;35.33;21.95;;;5.30;1.00;;;;;;6255601;22;20407;-86
2022/11/13 17:06:34;;;;;;;35.80;23.48;;;5.30;99.90;;;;;;6276399;22;20027;-86
2022/11/13 17:09:23;;;;;;;41.60;26.60;;;5.30;99.90;;;;;;6278470;22;20486;-88
2022/11/13 17:12:11;;;;;;;39.08;24.17;;;5.20;1.00;;;;;;6281233;22;20035;-88
2022/11/13 17:14:58;;;;;;;34.80;23.60;;;5.10;1.00;;;;;;6257540;22;20023;-88
2022/11/13 17:17:46;;;;;;;36.10;23.63;;;5.00;99.90;;;;;;6276495;22;20042;-87
2022/11/13 17:20:35;;;;;;;32.58;22.55;;;5.00;1.00;;;;;;6276784;22;20024;-88
2022/11/13 17:23:26;;;;;;;34.10;22.73;;;5.00;26.30;;;;;;6255117;22;20411;-88
2022/11/13 17:26:15;;;;;;;44.95;29.63;;;5.00;99.90;;;;;;6254173;22;20027;-89
2022/11/13 17:29:06;;;;;;;38.83;25.55;;;5.10;1.00;;;;;;6253930;22;20038;-88
2022/11/13 17:31:53;;;;;;;42.00;26.13;;;5.20;1.00;;;;;;6253271;22;20024;-88
2022/11/13 17:34:42;;;;;;;43.45;27.13;;;5.10;1.00;;;;;;6256852;22;20031;-89
2022/11/13 17:37:30;;;;;;;31.02;21.48;;;5.00;1.00;;;;;;6255809;22;20051;-88
2022/11/13 17:40:18;;;;;;;37.85;25.05;;;4.90;43.30;;;;;;6279973;22;20031;-88
2022/11/13 17:43:07;;;;;;;37.40;23.77;;;4.80;79.50;;;;;;6281566;22;20391;-88
2022/11/13 17:45:54;;;;;;;37.05;25.25;;;5.10;99.90;;;;;;6264713;22;20028;-87
2022/11/13 17:48:43;;;;;;;38.33;26.60;;;5.20;99.90;;;;;;6262674;22;20035;-88
2022/11/13 17:51:30;;;;;;;40.55;24.55;;;5.30;99.90;;;;;;6279831;22;20097;-89
2022/11/13 17:54:18;;;;;;;33.65;23.00;;;5.30;99.90;;;;;;6279904;22;20105;-88
2022/11/13 17:57:09;;;;;;;34.50;23.67;;;5.40;93.70;;;;;;6282347;22;20031;-88
2022/11/13 17:59:56;;;;;;;33.92;22.02;;;5.40;23.70;;;;;;6256170;22;20027;-88
2022/11/13 18:02:45;;;;;;;39.28;24.13;;;5.30;1.00;;;;;;6256514;22;20039;-88
2022/11/13 18:05:35;;;;;;;35.38;24.27;;;5.30;1.00;;;;;;6277259;22;20034;-89
2022/11/13 18:08:26;;;;;;;36.05;23.77;;;5.20;1.00;;;;;;6280530;22;20023;-90
2022/11/13 18:11:15;;;;;;;35.92;24.10;;;5.10;1.00;;;;;;6258920;22;20020;-89
2022/11/13 18:14:03;;;;;;;37.90;25.35;;;5.00;1.00;;;;;;6279356;22;20030;-88
2022/11/13 18:16:53;;;;;;;40.83;24.65;;;4.90;1.00;;;;;;6279946;22;20024;-88
2022/11/13 18:19:40;;;;;;;47.15;27.90;;;4.80;50.30;;;;;;6279492;22;20051;-89
2022/11/13 18:22:28;;;;;;;37.50;26.40;;;4.80;76.40;;;;;;6256282;22;20027;-89
2022/11/13 18:25:17;;;;;;;44.42;28.02;;;4.70;95.10;;;;;;6279680;22;20023;-87
2022/11/13 18:28:06;;;;;;;44.83;29.42;;;4.70;99.90;;;;;;6277278;22;20372;-88
2022/11/13 18:30:54;;;;;;;45.80;28.45;;;4.60;99.90;;;;;;6255843;22;20078;-89
2022/11/13 18:33:42;;;;;;;48.00;27.77;;;4.60;99.90;;;;;;6278946;22;20089;-87
2022/11/13 18:36:31;;;;;;;51.85;30.92;;;4.50;99.90;;;;;;6257687;22;20034;-88
2022/11/13 18:39:19;;;;;;;48.40;28.27;;;4.30;99.90;;;;;;6278726;22;20086;-88
2022/11/13 18:42:07;;;;;;;46.95;28.55;;;4.20;99.90;;;;;;6258988;22;20364;-87
2022/11/13 18:44:55;;;;;;;49.88;30.55;;;4.10;99.90;;;;;;6283003;22;20028;-89
2022/11/13 18:47:50;;;;;;;55.45;33.90;;;4.00;99.90;;;;;;6259307;22;20099;-88
2022/11/13 18:50:39;;;;;;;56.25;32.00;;;4.10;99.90;;;;;;6280538;22;20024;-90
2022/11/13 18:53:27;;;;;;;56.88;33.40;;;4.00;99.90;;;;;;6260085;22;20450;-90